Luning, Nevada
Current Conditions -  °F | °C
As of 10:56 AM on Saturday 25 Oct 2014 (Local Time) from KTPH Reporting Station
Clear Clear  
Wind Chill: 67°   Ceiling: Unl
Heat Index: 67°   Visibility: 10mi
Dew Point: 31°   Wind: 29mph
Humidity: 26%   Direction: 180°S
Pressure: 30.09"   Gusts: 39mph
Location:  38.51°N, 118.18°W
Report Text: KTPH 251756Z AUTO 18025G34KT 10SM CLR 19/M01 A3009 RMK AO2 PK WND 17034/1755 SLP132 T01941006 10194 20100 58009
Loading
Personal Weather Stations






























Interactive Weather Map
Tropical Storm Tracking
New forecast layout! Learn more

10-Day Weather Forecast

Advertisements
Track Severe Weather on mobile